createdAt,value
2019-02-07T00:14:39.282Z,5.50
2019-02-07T00:19:33.923Z,5.50
2019-02-07T00:24:43.013Z,5.60
2019-02-07T00:34:45.903Z,5.70
2019-02-07T00:39:49.631Z,5.90
2019-02-07T00:44:53.205Z,6.00
2019-02-07T00:49:58.046Z,6.00
2019-02-07T00:55:01.495Z,5.90
2019-02-07T01:00:07.974Z,5.90
2019-02-07T01:05:13.866Z,5.90
2019-02-07T01:15:22.271Z,5.80
2019-02-07T01:20:26.087Z,5.70
2019-02-07T01:30:33.292Z,5.20
2019-02-07T01:35:36.696Z,4.90
2019-02-07T01:40:40.448Z,4.70
2019-02-07T01:45:43.857Z,4.70
2019-02-07T01:50:47.903Z,4.60
2019-02-07T01:55:51.314Z,4.60
2019-02-07T02:00:55.344Z,4.60
2019-02-07T02:16:05.954Z,4.80
2019-02-07T02:21:09.359Z,4.80
2019-02-07T02:26:13.223Z,4.80
2019-02-07T02:31:16.635Z,4.80
2019-02-07T02:36:20.039Z,4.80
2019-02-07T02:41:23.976Z,4.80
2019-02-07T02:46:29.168Z,4.70
2019-02-07T02:51:32.586Z,4.60
2019-02-07T02:56:35.978Z,4.40
2019-02-07T03:06:54.930Z,4.30
2019-02-07T03:11:59.981Z,4.30
2019-02-07T03:17:16.858Z,4.30
2019-02-07T03:32:52.154Z,4.30
2019-02-07T03:38:00.227Z,4.40
2019-02-07T03:43:20.672Z,4.40
2019-02-07T03:59:09.921Z,4.40
2019-02-07T04:09:22.758Z,4.50
2019-02-07T04:14:33.696Z,4.50
2019-02-07T04:19:39.026Z,4.60
2019-02-07T04:24:44.680Z,4.60
2019-02-07T04:35:25.326Z,4.60
2019-02-07T04:40:30.414Z,4.70
2019-02-07T04:45:35.470Z,4.60
2019-02-07T04:50:40.514Z,4.70
2019-02-07T04:56:00.776Z,4.70
2019-02-07T05:06:28.605Z,4.80
2019-02-07T05:11:34.062Z,4.90
2019-02-07T05:16:43.728Z,5.00
2019-02-07T05:22:06.722Z,5.10
2019-02-07T05:27:28.375Z,5.20
2019-02-07T05:38:05.351Z,5.40
2019-02-07T05:43:13.392Z,5.40
2019-02-07T05:48:36.519Z,5.40
2019-02-07T05:53:44.919Z,5.40
2019-02-07T05:59:08.230Z,5.60
2019-02-07T06:04:13.544Z,5.70
2019-02-07T06:09:24.783Z,5.60
2019-02-07T06:14:33.066Z,5.70
2019-02-07T06:19:54.402Z,5.80
2019-02-07T06:25:14.497Z,6.10
2019-02-07T06:35:51.649Z,6.40
2019-02-07T06:41:13.207Z,6.70
2019-02-07T06:51:51.234Z,6.80
2019-02-07T06:56:56.638Z,6.90
2019-02-07T07:02:01.927Z,6.80
2019-02-07T07:22:40.025Z,6.70
2019-02-07T07:27:50.818Z,6.60
2019-02-07T07:33:01.988Z,6.50
2019-02-07T07:38:13.285Z,6.50
2019-02-07T07:54:07.153Z,7.00
2019-02-07T08:04:17.166Z,7.00
2019-02-07T08:09:39.211Z,7.20
2019-02-07T08:14:44.575Z,7.30
2019-02-07T08:19:49.682Z,7.40
2019-02-07T08:24:54.727Z,7.40
2019-02-07T08:35:35.404Z,7.50
2019-02-07T08:40:57.070Z,7.60
2019-02-07T08:46:02.112Z,7.90
2019-02-07T09:01:35.072Z,7.80
2019-02-07T09:12:13.040Z,7.80
2019-02-07T09:17:18.819Z,7.90
2019-02-07T09:59:10.429Z,8.10
2019-02-07T10:04:30.668Z,8.30
2019-02-07T10:19:52.014Z,8.80
2019-02-07T10:24:57.379Z,8.90
2019-02-07T10:35:23.144Z,9.00
2019-02-07T10:40:37.422Z,9.20
2019-02-07T10:45:48.744Z,9.30
2019-02-07T10:56:20.335Z,9.30
2019-02-07T11:11:54.842Z,9.20
2019-02-07T11:16:59.892Z,9.30
2019-02-07T11:22:05.231Z,9.40
2019-02-07T11:27:16.253Z,9.70
2019-02-07T11:32:37.808Z,9.80
2019-02-07T11:37:54.822Z,9.90
2019-02-07T11:43:12.330Z,9.90
2019-02-07T11:48:26.555Z,10.10
2019-02-07T11:53:37.763Z,10.20
2019-02-07T12:14:08.045Z,10.30
2019-02-07T12:19:18.043Z,10.20
2019-02-07T12:24:41.344Z,10.20
2019-02-07T12:40:15.374Z,10.40
2019-02-07T12:45:23.465Z,10.40
2019-02-07T12:50:34.764Z,10.40
2019-02-07T13:01:04.750Z,10.40
2019-02-07T13:06:09.946Z,10.30
2019-02-07T13:16:47.338Z,10.30
2019-02-07T13:22:01.337Z,10.30
2019-02-07T13:27:06.531Z,10.30
2019-02-07T13:32:27.384Z,10.30
2019-02-07T13:53:23.544Z,10.30
2019-02-07T13:58:44.478Z,10.30
2019-02-07T14:03:58.025Z,10.20
2019-02-07T14:09:18.078Z,10.30
2019-02-07T14:14:26.218Z,10.30
2019-02-07T14:19:34.232Z,10.30
2019-02-07T14:29:47.554Z,10.30
2019-02-07T14:34:52.594Z,10.40
2019-02-07T14:50:28.441Z,10.30
2019-02-07T14:55:31.847Z,10.30
2019-02-07T15:05:39.005Z,10.20
2019-02-07T15:10:42.722Z,10.20
2019-02-07T15:15:46.464Z,10.20
2019-02-07T15:30:56.080Z,10.00
2019-02-07T15:35:59.807Z,9.90
2019-02-07T15:41:03.517Z,9.80
2019-02-07T15:51:11.667Z,9.70
2019-02-07T15:56:15.064Z,9.70
2019-02-07T16:01:20.111Z,9.70
2019-02-07T16:06:23.497Z,9.70
2019-02-07T16:11:26.975Z,9.60
2019-02-07T16:16:30.435Z,9.60
2019-02-07T16:21:33.850Z,9.50
2019-02-07T16:41:48.082Z,9.30
2019-02-07T16:57:19.842Z,9.20
2019-02-07T17:02:23.306Z,9.20
2019-02-07T17:32:43.174Z,8.30
2019-02-07T17:42:50.338Z,8.10
2019-02-07T17:58:00.270Z,8.00
2019-02-07T18:08:08.379Z,8.00
2019-02-07T18:13:11.824Z,7.90
2019-02-07T18:18:15.705Z,7.90
2019-02-07T18:23:19.424Z,7.80
2019-02-07T18:28:23.094Z,7.80
2019-02-07T19:08:50.360Z,7.10
2019-02-07T19:13:53.742Z,7.00
2019-02-07T19:18:57.393Z,6.90
2019-02-07T19:24:01.109Z,7.00
2019-02-07T19:29:05.152Z,7.00
2019-02-07T19:34:08.554Z,7.00
2019-02-07T19:49:18.791Z,6.80
2019-02-07T19:59:25.342Z,6.70
2019-02-07T20:09:32.170Z,7.00
2019-02-07T20:14:36.340Z,7.20
2019-02-07T20:19:39.775Z,7.20
2019-02-07T20:24:46.111Z,7.20
2019-02-07T20:29:49.114Z,7.30
2019-02-07T20:34:52.618Z,7.30
2019-02-07T20:39:56.039Z,7.40
2019-02-07T21:05:19.749Z,6.80
2019-02-07T21:15:27.866Z,6.90
2019-02-07T21:20:32.251Z,6.90
2019-02-07T21:25:47.621Z,6.90
2019-02-07T21:30:51.380Z,7.00
2019-02-07T21:40:58.208Z,7.00
2019-02-07T21:46:01.619Z,6.80
2019-02-07T21:51:05.457Z,6.70
2019-02-07T21:56:08.882Z,6.40
2019-02-07T22:11:18.785Z,6.10
2019-02-07T22:16:23.131Z,5.90
2019-02-07T22:26:29.600Z,5.70
2019-02-07T22:41:39.381Z,5.50
2019-02-07T22:56:49.452Z,5.40
2019-02-07T23:01:54.062Z,5.30
2019-02-07T23:06:57.454Z,5.20
2019-02-07T23:12:00.986Z,5.30
2019-02-07T23:17:04.849Z,5.20
2019-02-07T23:22:08.650Z,5.20
2019-02-07T23:37:18.264Z,5.10
2019-02-07T23:52:29.130Z,5.40
2019-02-07T23:57:32.874Z,5.50
